createdAt,value
2022-12-08T11:53:21.154Z,2.33
2022-12-08T11:56:46.983Z,2.25
2022-12-08T11:59:45.705Z,2.31
2022-12-08T12:02:43.563Z,2.25
2022-12-08T12:06:09.101Z,2.27
2022-12-08T12:10:09.753Z,2.23
2022-12-08T12:13:50.183Z,2.05
2022-12-08T12:17:33.767Z,2.08
2022-12-08T12:20:37.282Z,1.99
2022-12-08T12:23:47.269Z,1.93
2022-12-08T12:26:36.925Z,1.85
2022-12-08T12:29:55.322Z,1.79
2022-12-08T12:33:01.199Z,1.69
2022-12-08T12:35:50.312Z,1.67
2022-12-08T12:39:00.862Z,1.65
2022-12-08T12:41:51.321Z,1.62
2022-12-08T12:44:39.308Z,1.55
2022-12-08T12:47:55.826Z,1.59
2022-12-08T12:50:46.111Z,1.53
2022-12-08T12:53:34.065Z,1.52
2022-12-08T12:57:01.203Z,1.47
2022-12-08T13:02:57.914Z,1.31
2022-12-08T13:05:52.652Z,1.30
2022-12-08T13:08:48.808Z,1.22
2022-12-08T13:11:56.713Z,1.18
2022-12-08T13:14:47.017Z,1.16
2022-12-08T13:17:39.259Z,1.13
2022-12-08T13:20:25.425Z,1.05
2022-12-08T13:23:12.781Z,1.02
2022-12-08T13:26:18.125Z,0.96
2022-12-08T13:29:12.536Z,0.93
2022-12-08T13:32:02.004Z,0.88
2022-12-08T13:34:55.099Z,0.79
2022-12-08T13:37:54.339Z,0.76
2022-12-08T13:40:41.901Z,0.65
2022-12-08T13:44:20.500Z,0.65
2022-12-08T13:47:31.521Z,0.62
2022-12-08T13:51:16.154Z,0.52
2022-12-08T13:57:05.180Z,0.46
2022-12-08T13:59:48.604Z,0.40
2022-12-08T14:02:35.663Z,0.36
2022-12-08T14:05:41.141Z,0.32
2022-12-08T14:09:00.152Z,0.27
2022-12-08T14:11:42.374Z,0.25
2022-12-08T14:15:01.111Z,0.22
2022-12-08T14:17:39.306Z,0.18
2022-12-08T14:20:27.254Z,0.17
2022-12-08T14:23:17.283Z,0.12
2022-12-08T14:26:04.874Z,0.10
2022-12-08T14:28:49.774Z,0.04
2022-12-08T14:31:34.976Z,0.04
2022-12-08T14:34:20.174Z,0.00
2022-12-08T14:37:05.932Z,-0.01
2022-12-08T14:39:52.136Z,-0.03
2022-12-08T14:42:51.209Z,-0.07
2022-12-08T14:45:38.818Z,-0.07
2022-12-08T14:48:39.002Z,-0.07
2022-12-08T14:51:30.101Z,-0.11
2022-12-08T14:54:18.206Z,-0.15
2022-12-08T14:57:03.730Z,-0.13
2022-12-08T14:59:49.581Z,-0.18
2022-12-08T15:02:43.451Z,-0.18
2022-12-08T15:05:31.351Z,-0.22
2022-12-08T15:08:16.761Z,-0.19
2022-12-08T15:11:38.863Z,-0.21
2022-12-08T15:14:35.591Z,-0.20
2022-12-08T15:17:35.601Z,-0.22
2022-12-08T15:20:39.964Z,-0.24
2022-12-08T15:23:27.992Z,-0.26
2022-12-08T15:26:23.792Z,-0.33
2022-12-08T15:29:27.166Z,-0.31
2022-12-08T15:32:20.054Z,-0.32
2022-12-08T15:35:05.239Z,-0.30
2022-12-08T15:37:50.086Z,-0.32
2022-12-08T15:40:34.914Z,-0.32
2022-12-08T15:43:20.510Z,-0.37
2022-12-08T15:46:05.581Z,-0.36
2022-12-08T15:48:54.915Z,-0.43
2022-12-08T15:51:42.953Z,-0.43
2022-12-08T15:54:27.733Z,-0.44
2022-12-08T15:57:53.410Z,-0.40
2022-12-08T16:09:51.439Z,-0.50
2022-12-08T16:16:02.679Z,-0.52
2022-12-08T16:18:49.069Z,-0.52
2022-12-08T16:22:23.812Z,-0.54
2022-12-08T16:24:38.991Z,-0.52
2022-12-08T16:30:33.303Z,-0.52
2022-12-08T16:33:18.324Z,-0.56
2022-12-08T16:36:03.287Z,-0.53
2022-12-08T16:38:48.179Z,-0.56
2022-12-08T16:41:51.738Z,-0.56
2022-12-08T16:44:41.396Z,-0.56
2022-12-08T16:47:26.297Z,-0.60
2022-12-08T16:50:12.590Z,-0.60
2022-12-08T16:53:03.889Z,-0.60
2022-12-08T16:55:49.369Z,-0.62
2022-12-08T16:58:34.169Z,-0.64
2022-12-08T17:01:19.112Z,-0.59
2022-12-08T17:07:08.714Z,-0.62
2022-12-08T17:09:53.723Z,-0.62
2022-12-08T17:12:38.518Z,-0.59
2022-12-08T17:15:25.092Z,-0.59
2022-12-08T17:18:10.070Z,-0.60
2022-12-08T17:20:54.987Z,-0.63
2022-12-08T17:23:41.180Z,-0.62
2022-12-08T17:26:25.925Z,-0.66
2022-12-08T17:29:10.920Z,-0.67
2022-12-08T17:31:55.903Z,-0.69
2022-12-08T17:34:40.920Z,-0.75
2022-12-08T17:37:26.080Z,-0.72
2022-12-08T17:41:01.507Z,-0.74
2022-12-08T17:43:46.870Z,-0.77
2022-12-08T17:46:31.369Z,-0.76
2022-12-08T17:49:19.129Z,-0.76
2022-12-08T17:52:08.755Z,-0.76
2022-12-08T17:54:53.502Z,-0.78
2022-12-08T17:57:38.422Z,-0.75
2022-12-08T18:00:23.234Z,-0.73
2022-12-08T18:03:07.809Z,-0.79
2022-12-08T18:05:52.741Z,-0.76
2022-12-08T18:08:38.249Z,-0.77
2022-12-08T18:11:24.107Z,-0.80
2022-12-08T18:14:09.761Z,-0.80
2022-12-08T18:16:54.354Z,-0.84
2022-12-08T18:19:39.114Z,-0.81
2022-12-08T18:22:23.830Z,-0.83
2022-12-08T18:25:09.887Z,-0.81
2022-12-08T18:27:54.726Z,-0.82
2022-12-08T18:30:40.265Z,-0.83
2022-12-08T18:33:25.813Z,-0.84
2022-12-08T18:36:13.557Z,-0.82
2022-12-08T18:38:58.248Z,-0.86
2022-12-08T18:41:43.273Z,-0.85
2022-12-08T18:44:28.119Z,-0.83
2022-12-08T18:47:12.725Z,-0.85
2022-12-08T18:49:57.580Z,-0.86
2022-12-08T18:52:42.301Z,-0.90
2022-12-08T18:55:27.060Z,-0.90
2022-12-08T18:58:13.772Z,-0.95
2022-12-08T19:00:58.712Z,-0.95
2022-12-08T19:03:58.492Z,-0.97
2022-12-08T19:06:49.811Z,-0.96
2022-12-08T19:09:34.640Z,-0.98
2022-12-08T19:12:19.458Z,-0.96
2022-12-08T19:15:04.988Z,-0.97
2022-12-08T19:17:50.040Z,-0.98
2022-12-08T19:20:35.194Z,-0.96
2022-12-08T19:23:20.120Z,-0.97
2022-12-08T19:26:05.479Z,-0.94
2022-12-08T19:28:50.126Z,-0.94
2022-12-08T19:31:35.060Z,-0.91
2022-12-08T19:34:19.913Z,-0.90
2022-12-08T19:37:06.171Z,-0.92
2022-12-08T19:40:09.572Z,-0.92
2022-12-08T19:43:12.969Z,-0.93
2022-12-08T19:45:57.934Z,-0.96
2022-12-08T19:48:43.313Z,-0.91
2022-12-08T19:51:28.415Z,-0.91
2022-12-08T19:54:13.022Z,-0.90
2022-12-08T19:56:58.300Z,-0.94
2022-12-08T19:59:43.230Z,-0.92
2022-12-08T20:02:28.793Z,-0.95
2022-12-08T20:05:14.567Z,-0.93
2022-12-08T20:07:59.778Z,-0.94
2022-12-08T20:10:45.222Z,-0.91
2022-12-08T20:13:44.838Z,-0.94
2022-12-08T20:16:29.612Z,-0.91
2022-12-08T20:19:15.018Z,-0.89
2022-12-08T20:22:01.885Z,-0.90
2022-12-08T20:24:51.905Z,-0.91
2022-12-08T20:27:41.418Z,-0.88
2022-12-08T20:30:26.179Z,-0.86
2022-12-08T20:33:13.146Z,-0.85
2022-12-08T20:36:04.435Z,-0.86
2022-12-08T20:38:51.796Z,-0.87
2022-12-08T20:41:39.307Z,-0.90
2022-12-08T20:44:24.745Z,-0.87
2022-12-08T20:47:11.259Z,-0.84
2022-12-08T20:49:56.309Z,-0.79
2022-12-08T20:52:41.222Z,-0.77
2022-12-08T20:55:26.071Z,-0.70
2022-12-08T20:58:11.506Z,-0.67
2022-12-08T21:00:56.407Z,-0.63
2022-12-08T21:03:42.314Z,-0.62
2022-12-08T21:06:27.480Z,-0.59
2022-12-08T21:09:12.559Z,-0.54
2022-12-08T21:11:57.318Z,-0.51
2022-12-08T21:14:42.118Z,-0.50
2022-12-08T21:17:27.839Z,-0.47
2022-12-08T21:20:13.027Z,-0.48
2022-12-08T21:22:59.361Z,-0.51
2022-12-08T21:26:05.051Z,-0.49
2022-12-08T21:28:49.760Z,-0.53
2022-12-08T21:31:36.570Z,-0.52
2022-12-08T21:34:21.904Z,-0.53
2022-12-08T21:37:06.793Z,-0.53
2022-12-08T21:39:51.916Z,-0.55
2022-12-08T21:42:46.177Z,-0.55
2022-12-08T21:45:33.303Z,-0.55
2022-12-08T21:48:18.290Z,-0.61
2022-12-08T21:51:04.841Z,-0.58
2022-12-08T21:53:50.219Z,-0.60
2022-12-08T21:56:35.169Z,-0.58
2022-12-08T21:59:20.843Z,-0.58
2022-12-08T22:02:09.936Z,-0.62
2022-12-08T22:04:55.453Z,-0.65
2022-12-08T22:07:40.815Z,-0.67
2022-12-08T22:10:26.130Z,-0.68
2022-12-08T22:13:10.911Z,-0.64
2022-12-08T22:16:01.732Z,-0.66
2022-12-08T22:18:47.111Z,-0.68
2022-12-08T22:21:32.372Z,-0.68
2022-12-08T22:24:17.166Z,-0.72
2022-12-08T22:27:02.273Z,-0.74
2022-12-08T22:29:47.201Z,-0.80
2022-12-08T22:32:33.131Z,-0.78
2022-12-08T22:35:18.293Z,-0.78
2022-12-08T22:38:03.226Z,-0.77
2022-12-08T22:40:48.113Z,-0.75
2022-12-08T22:43:33.206Z,-0.74
2022-12-08T22:46:25.283Z,-0.72
2022-12-08T22:49:11.239Z,-0.73
2022-12-08T22:51:56.350Z,-0.72
2022-12-08T22:54:41.450Z,-0.70
2022-12-08T22:57:27.864Z,-0.69
2022-12-08T23:00:13.301Z,-0.69
2022-12-08T23:02:58.279Z,-0.69
2022-12-08T23:05:43.033Z,-0.70
2022-12-08T23:08:28.677Z,-0.67
2022-12-08T23:11:13.938Z,-0.67
2022-12-08T23:14:01.678Z,-0.70
2022-12-08T23:16:46.697Z,-0.72
2022-12-08T23:19:31.420Z,-0.71
2022-12-08T23:22:16.534Z,-0.77
2022-12-08T23:25:01.363Z,-0.78
2022-12-08T23:27:46.552Z,-0.73
2022-12-08T23:30:31.612Z,-0.76
2022-12-08T23:33:16.561Z,-0.71
2022-12-08T23:36:01.846Z,-0.75
2022-12-08T23:38:47.673Z,-0.72
2022-12-08T23:41:32.614Z,-0.76
2022-12-08T23:44:17.379Z,-0.73
2022-12-08T23:47:02.670Z,-0.75
2022-12-08T23:49:47.369Z,-0.73
2022-12-08T23:52:32.651Z,-0.78
2022-12-08T23:55:17.630Z,-0.80
2022-12-08T23:58:02.621Z,-0.77
